Time;durP1;ratioP1;P1;durP2;ratioP2;P2;SDS_P1;SDS_P2;PMS_P1;PMS_P2;Temp;Humidity;BMP_temperature;BMP_pressure;BME280_temperature;BME280_humidity;BME280_pressure;Samples;Min_cycle;Max_cycle;Signal;HPM_P1;HPM_P2
2021/07/03 16:03:38;;;;;;;22.83;11.43;;;;;;;17.07;75.68;98440.15;125545;1096;103400;-69
2021/07/03 16:06:08;;;;;;;21.93;11.63;;;;;;;17.11;75.57;98448.70;125620;1095;103012;-69
2021/07/03 16:08:37;;;;;;;20.20;11.27;;;;;;;17.15;75.56;98450.04;125638;1095;102969;-68
2021/07/03 16:11:06;;;;;;;20.03;10.90;;;;;;;17.18;75.30;98448.84;125693;1093;103041;-67
2021/07/03 16:13:34;;;;;;;20.03;11.53;;;;;;;17.22;75.64;98455.56;125603;1093;103521;-67
2021/07/03 16:16:04;;;;;;;21.47;11.57;;;;;;;17.24;75.64;98451.72;125652;1093;102938;-69
2021/07/03 16:18:34;;;;;;;21.20;12.60;;;;;;;17.26;75.22;98446.16;125661;1094;103025;-67
2021/07/03 16:21:03;;;;;;;20.47;11.47;;;;;;;17.30;75.39;98449.36;125665;1092;102939;-71
2021/07/03 16:23:32;;;;;;;20.77;11.27;;;;;;;17.33;75.69;98451.68;125630;1095;103025;-69
2021/07/03 16:26:03;;;;;;;22.33;11.90;;;;;;;17.35;75.60;98460.42;125585;1093;103004;-68
2021/07/03 16:28:33;;;;;;;21.77;11.73;;;;;;;17.36;75.25;98462.09;125584;1094;102913;-65
2021/07/03 16:31:02;;;;;;;19.40;11.63;;;;;;;17.38;75.49;98455.55;125714;1093;103009;-67
2021/07/03 16:33:30;;;;;;;21.60;11.97;;;;;;;17.39;75.17;98457.23;125604;1093;103031;-67
2021/07/03 16:36:02;;;;;;;19.47;10.93;;;;;;;17.41;75.62;98460.59;125668;1093;103015;-67
2021/07/03 16:38:30;;;;;;;20.40;11.50;;;;;;;17.43;75.24;98462.27;125599;1093;102926;-68
2021/07/03 16:41:05;;;;;;;21.57;11.57;;;;;;;17.44;75.27;98462.09;125717;1093;103426;-68
2021/07/03 16:43:38;;;;;;;21.17;11.17;;;;;;;17.46;75.26;98464.63;125658;1093;102945;-66
2021/07/03 16:46:06;;;;;;;21.60;11.17;;;;;;;17.48;75.44;98459.91;125588;1095;103006;-67
2021/07/03 16:48:35;;;;;;;21.73;11.53;;;;;;;17.49;75.47;98461.59;125570;1094;103128;-67
2021/07/03 16:51:04;;;;;;;20.23;11.80;;;;;;;17.48;75.43;98462.60;125617;1094;103039;-68
2021/07/03 16:53:33;;;;;;;20.87;11.53;;;;;;;17.48;75.73;98468.80;125601;1095;103004;-68
2021/07/03 16:56:03;;;;;;;18.47;8.90;;;;;;;17.47;75.69;98461.75;127683;1093;100685;-67
2021/07/03 16:58:32;;;;;;;21.27;10.97;;;;;;;17.47;75.54;98461.75;127730;1093;100933;-68
2021/07/03 17:01:01;;;;;;;20.07;10.27;;;;;;;17.48;75.45;98459.91;127691;1093;101632;-66
2021/07/03 17:03:30;;;;;;;21.63;11.27;;;;;;;17.52;75.50;98458.56;126720;1092;103038;-66
2021/07/03 17:05:58;;;;;;;22.07;11.40;;;;;;;17.52;75.70;98462.08;125586;1093;102916;-67
2021/07/03 17:08:26;;;;;;;23.07;12.63;;;;;;;17.52;75.28;98459.39;125561;1094;103012;-66
2021/07/03 17:10:55;;;;;;;19.43;9.63;;;;;;;17.53;75.90;98461.06;125756;1093;103004;-66
2021/07/03 17:13:23;;;;;;;22.30;11.17;;;;;;;17.54;75.44;98462.75;125614;1094;103034;-70
2021/07/03 17:15:54;;;;;;;20.10;10.17;;;;;;;17.55;75.80;98471.64;125667;1093;103096;-68
2021/07/03 17:18:24;;;;;;;21.73;10.33;;;;;;;17.54;75.87;98470.81;125681;1093;102913;-69
2021/07/03 17:20:52;;;;;;;20.37;10.70;;;;;;;17.54;75.37;98462.75;125617;1095;102945;-68
2021/07/03 17:23:21;;;;;;;20.85;10.85;;;;;;;17.55;75.45;98463.57;125805;1093;103440;-68
2021/07/03 17:25:49;;;;;;;19.35;9.70;;;;;;;17.54;75.55;98464.58;125645;1096;103047;-67
2021/07/03 17:28:31;;;;;;;19.50;9.80;;;;;;;17.54;75.56;98465.44;125592;1096;103041;-67
2021/07/03 17:31:01;;;;;;;19.43;10.20;;;;;;;17.53;75.93;98468.28;125679;1093;103021;-69
2021/07/03 17:33:30;;;;;;;21.20;11.07;;;;;;;17.52;75.91;98469.31;125728;1093;102934;-70
2021/07/03 17:35:58;;;;;;;21.37;11.40;;;;;;;17.51;75.54;98471.16;125691;1094;103013;-67
2021/07/03 17:38:27;;;;;;;24.53;12.83;;;;;;;17.50;75.79;98472.16;125673;1096;103463;-69
2021/07/03 17:40:56;;;;;;;21.23;11.33;;;;;;;17.50;75.71;98474.03;125593;1093;103415;-69
2021/07/03 17:43:25;;;;;;;22.00;11.47;;;;;;;17.50;75.89;98463.27;125666;1093;103068;-68
2021/07/03 17:45:53;;;;;;;20.03;11.27;;;;;;;17.49;75.58;98472.34;125626;1094;103009;-69
2021/07/03 17:48:22;;;;;;;18.97;10.90;;;;;;;17.48;75.66;98478.73;125740;1093;102939;-71
2021/07/03 17:50:51;;;;;;;22.40;11.17;;;;;;;17.48;75.73;98470.67;125633;1096;103027;-69
2021/07/03 17:53:20;;;;;;;20.50;12.03;;;;;;;17.47;75.69;98483.25;125696;1095;102936;-68
2021/07/03 17:55:48;;;;;;;22.57;11.43;;;;;;;17.44;75.53;98477.39;125651;1094;103001;-70
2021/07/03 17:58:16;;;;;;;21.00;10.87;;;;;;;17.42;75.90;98461.42;125600;1095;103044;-69
2021/07/03 18:00:45;;;;;;;22.03;12.53;;;;;;;17.40;76.14;98475.05;125682;1093;102931;-69
2021/07/03 18:03:13;;;;;;;23.60;11.93;;;;;;;17.38;75.74;98479.75;125685;1095;103081;-69
2021/07/03 18:05:41;;;;;;;23.35;13.50;;;;;;;17.38;76.01;98478.89;125628;1094;103065;-68
2021/07/03 18:08:12;;;;;;;22.13;12.33;;;;;;;17.34;75.89;98475.72;125639;1095;103033;-68
2021/07/03 18:10:43;;;;;;;22.73;13.03;;;;;;;17.31;76.04;98467.99;125628;1096;103033;-68
2021/07/03 18:13:12;;;;;;;22.43;12.80;;;;;;;17.30;75.80;98479.75;125641;1094;102997;-68
2021/07/03 18:15:43;;;;;;;20.40;12.23;;;;;;;17.28;76.09;98476.39;125622;1093;103103;-67
2021/07/03 18:18:11;;;;;;;23.40;13.37;;;;;;;17.28;75.80;98470.19;125649;1095;103172;-67
2021/07/03 18:20:40;;;;;;;23.53;12.43;;;;;;;17.26;76.20;98481.09;125609;1094;103384;-68
2021/07/03 18:23:08;;;;;;;23.27;13.43;;;;;;;17.25;76.12;98474.05;125625;1096;103090;-69
2021/07/03 18:25:38;;;;;;;23.13;13.60;;;;;;;17.24;75.95;98475.91;125680;1095;102945;-68
2021/07/03 18:28:06;;;;;;;22.80;13.40;;;;;;;17.24;76.16;98475.05;125617;1093;103020;-72
2021/07/03 18:30:35;;;;;;;24.37;13.67;;;;;;;17.22;76.15;98469.86;125749;1094;103070;-68
2021/07/03 18:33:03;;;;;;;21.45;12.70;;;;;;;17.21;75.73;98472.70;125900;1095;103131;-69
2021/07/03 18:35:32;;;;;;;20.85;12.95;;;;;;;17.20;76.06;98468.33;125742;1095;103078;-68
2021/07/03 18:38:00;;;;;;;24.07;13.53;;;;;;;17.20;75.82;98479.08;125749;1094;102891;-67
2021/07/03 18:40:29;;;;;;;23.37;12.93;;;;;;;17.17;76.06;98474.90;125594;1094;103074;-69
2021/07/03 18:42:57;;;;;;;20.87;12.10;;;;;;;17.16;76.48;98475.91;125682;1095;103031;-68
2021/07/03 18:45:26;;;;;;;22.63;14.00;;;;;;;17.17;76.27;98479.41;125606;1095;103188;-69
2021/07/03 18:47:55;;;;;;;22.23;12.73;;;;;;;17.21;75.99;98484.30;125566;1094;103422;-69
2021/07/03 18:50:24;;;;;;;22.97;12.67;;;;;;;17.23;76.07;98481.44;125570;1094;102940;-67
2021/07/03 18:52:55;;;;;;;24.07;13.30;;;;;;;17.24;76.01;98478.59;125665;1094;103345;-65
2021/07/03 18:55:23;;;;;;;24.37;14.00;;;;;;;17.27;76.50;98482.78;125488;1095;103061;-71
2021/07/03 18:57:56;;;;;;;26.50;14.67;;;;;;;17.29;75.98;98488.83;125600;1093;102998;-72
2021/07/03 19:00:26;;;;;;;23.55;13.75;;;;;;;17.31;76.07;98492.18;125728;1094;102923;-70
2021/07/03 19:02:55;;;;;;;23.30;14.10;;;;;;;17.34;76.57;98509.81;125695;1093;103010;-70
2021/07/03 19:05:25;;;;;;;26.83;16.17;;;;;;;17.36;76.05;98510.48;125608;1095;103033;-69
2021/07/03 19:07:55;;;;;;;24.77;14.90;;;;;;;17.36;76.42;98510.48;125596;1095;102917;-69
2021/07/03 19:10:25;;;;;;;24.80;14.83;;;;;;;17.37;76.55;98507.64;125660;1095;102977;-69
2021/07/03 19:12:54;;;;;;;25.53;15.30;;;;;;;17.37;76.08;98513.02;125667;1096;103001;-67
2021/07/03 19:15:24;;;;;;;25.87;14.53;;;;;;;17.40;76.53;98519.89;125670;1094;102930;-71
2021/07/03 19:17:53;;;;;;;23.73;14.70;;;;;;;17.41;76.27;98527.80;125666;1094;103090;-69
2021/07/03 19:20:25;;;;;;;21.83;12.60;;;;;;;17.48;76.65;98530.64;125692;1094;103098;-68
2021/07/03 19:22:53;;;;;;;17.37;8.23;;;;;;;17.49;76.12;98536.88;125632;1094;102913;-69
2021/07/03 19:25:22;;;;;;;47.93;32.17;;;;;;;17.47;76.07;98531.65;125630;1094;102936;-70
2021/07/03 19:27:50;;;;;;;26.37;13.90;;;;;;;17.45;76.16;98527.47;125699;1095;102892;-68
2021/07/03 19:30:20;;;;;;;12.97;5.33;;;;;;;17.43;75.95;98532.99;125694;1093;103028;-68
2021/07/03 19:32:51;;;;;;;13.50;5.47;;;;;;;17.40;76.27;98525.27;125600;1094;103048;-68
2021/07/03 19:35:23;;;;;;;7.70;4.30;;;;;;;17.36;75.89;98532.84;125806;1096;103028;-68
2021/07/03 19:37:53;;;;;;;7.33;3.90;;;;;;;17.32;75.63;98528.80;125601;1093;102923;-74
2021/07/03 19:40:21;;;;;;;8.23;3.90;;;;;;;17.28;76.21;98532.01;125844;1095;102938;-74
2021/07/03 19:42:51;;;;;;;6.20;3.70;;;;;;;17.21;75.92;98527.30;125892;1095;103003;-74
2021/07/03 19:45:20;;;;;;;9.50;4.40;;;;;;;17.15;76.12;98527.97;125843;1095;102911;-74
2021/07/03 19:47:50;;;;;;;9.27;4.30;;;;;;;17.06;75.67;98531.65;125809;1093;102932;-74
2021/07/03 19:50:23;;;;;;;9.45;3.65;;;;;;;16.98;75.60;98529.80;125859;1093;102991;-72
2021/07/03 19:52:52;;;;;;;8.03;3.63;;;;;;;16.93;75.80;98532.94;125856;1093;102939;-72
2021/07/03 19:55:22;;;;;;;5.73;3.10;;;;;;;16.90;75.96;98533.30;125794;1094;103069;-72
2021/07/03 19:57:52;;;;;;;9.90;3.20;;;;;;;16.81;75.88;98532.42;125807;1094;102916;-71
2021/07/03 20:00:25;;;;;;;5.50;3.30;;;;;;;16.74;75.62;98523.34;125890;1095;103032;-75
2021/07/03 20:02:55;;;;;;;8.07;3.30;;;;;;;16.71;75.84;98533.58;126046;1095;102939;-77
2021/07/03 20:05:24;;;;;;;9.27;3.40;;;;;;;16.64;75.98;98528.86;125864;1094;103065;-77
2021/07/03 20:07:53;;;;;;;9.07;3.60;;;;;;;16.63;75.64;98523.67;125921;1094;103016;-77
2021/07/03 20:10:23;;;;;;;10.80;4.83;;;;;;;16.61;75.64;98523.81;125711;1096;103125;-74
2021/07/03 20:12:51;;;;;;;7.07;4.03;;;;;;;16.61;76.01;98520.31;126573;1093;102916;-75
2021/07/03 20:15:25;;;;;;;7.93;4.50;;;;;;;16.60;75.92;98522.14;125735;1093;102909;-76
2021/07/03 20:17:55;;;;;;;10.60;4.53;;;;;;;16.60;76.03;98518.63;125670;1093;103020;-77
2021/07/03 20:20:25;;;;;;;10.73;5.07;;;;;;;16.58;76.01;98513.41;125786;1093;102953;-67
2021/07/03 20:22:54;;;;;;;8.43;4.47;;;;;;;16.58;75.98;98515.27;125696;1095;103090;-68
2021/07/03 20:25:23;;;;;;;9.73;4.70;;;;;;;16.54;76.03;98514.73;125602;1093;102944;-70
2021/07/03 20:27:51;;;;;;;11.00;4.90;;;;;;;16.50;75.91;98519.60;125621;1093;103009;-68
2021/07/03 20:30:23;;;;;;;11.27;4.57;;;;;;;16.49;75.85;98517.92;125643;1093;102939;-69
2021/07/03 20:32:55;;;;;;;9.90;4.30;;;;;;;16.46;75.76;98512.88;125745;1094;102927;-70
2021/07/03 20:35:26;;;;;;;13.95;5.30;;;;;;;16.47;75.98;98519.10;125661;1093;103068;-68
2021/07/03 20:37:56;;;;;;;11.90;6.03;;;;;;;16.44;75.83;98511.38;125673;1093;103012;-69
2021/07/03 20:40:25;;;;;;;14.50;6.60;;;;;;;16.42;76.30;98508.83;125694;1093;102941;-69
2021/07/03 20:42:55;;;;;;;11.40;5.80;;;;;;;16.43;75.88;98515.06;125676;1093;103370;-69
2021/07/03 20:45:23;;;;;;;12.03;6.23;;;;;;;16.41;75.94;98515.20;125705;1092;102981;-70
2021/07/03 20:47:53;;;;;;;12.53;5.80;;;;;;;16.41;76.16;98509.84;125639;1093;103029;-69
2021/07/03 20:50:23;;;;;;;9.20;5.37;;;;;;;16.41;76.14;98509.02;125705;1093;102911;-69
2021/07/03 20:52:53;;;;;;;12.93;6.00;;;;;;;16.39;75.99;98509.16;125696;1093;102944;-70
2021/07/03 20:55:22;;;;;;;11.70;5.83;;;;;;;16.39;76.28;98511.02;125728;1093;103012;-69
2021/07/03 20:57:52;;;;;;;10.57;5.20;;;;;;;16.40;76.00;98510.02;125689;1093;103067;-68
2021/07/03 21:00:21;;;;;;;10.13;5.00;;;;;;;16.37;76.12;98508.48;125674;1093;103084;-69
2021/07/03 21:02:51;;;;;;;9.13;4.50;;;;;;;16.36;76.00;98506.80;125644;1093;102946;-68
2021/07/03 21:05:20;;;;;;;9.50;4.75;;;;;;;16.34;76.02;98501.61;125618;1093;103001;-68
2021/07/03 21:07:51;;;;;;;8.20;4.30;;;;;;;16.35;75.99;98505.11;125658;1092;103009;-69
2021/07/03 21:10:23;;;;;;;7.83;4.30;;;;;;;16.34;76.09;98503.44;125710;1092;102995;-68
2021/07/03 21:12:54;;;;;;;7.03;4.47;;;;;;;16.31;75.98;98509.98;125659;1096;103095;-68
2021/07/03 21:15:23;;;;;;;9.07;4.33;;;;;;;16.28;75.85;98521.03;125701;1096;103012;-68
2021/07/03 21:17:52;;;;;;;10.27;4.43;;;;;;;16.24;75.87;98518.85;125654;1093;102939;-68
2021/07/03 21:20:21;;;;;;;16.47;5.60;;;;;;;16.23;76.04;98528.73;125624;1092;102991;-70
2021/07/03 21:22:51;;;;;;;10.13;4.10;;;;;;;16.24;75.83;98522.36;125613;1093;103367;-68
2021/07/03 21:25:22;;;;;;;10.07;4.60;;;;;;;16.21;75.75;98525.36;125666;1093;103158;-69
2021/07/03 21:27:52;;;;;;;8.63;3.93;;;;;;;16.18;75.85;98515.80;125671;1092;103538;-67
2021/07/03 21:30:28;;;;;;;11.10;4.90;;;;;;;16.18;76.02;98523.00;125691;1093;103031;-68
2021/07/03 21:32:58;;;;;;;12.33;5.30;;;;;;;16.15;76.02;98523.31;125655;1096;103043;-68
2021/07/03 21:35:26;;;;;;;7.43;4.43;;;;;;;16.11;75.81;98519.27;125685;1094;103036;-69
2021/07/03 21:37:57;;;;;;;9.53;4.17;;;;;;;16.06;75.98;98517.94;125664;1093;103006;-69
2021/07/03 21:40:27;;;;;;;12.85;4.90;;;;;;;16.04;76.08;98524.45;125832;1093;103496;-68
2021/07/03 21:42:59;;;;;;;10.90;4.60;;;;;;;16.01;76.01;98527.45;125656;1092;102934;-68
2021/07/03 21:45:29;;;;;;;9.17;4.33;;;;;;;15.97;75.84;98526.94;125648;1092;102906;-68
2021/07/03 21:47:59;;;;;;;7.27;4.20;;;;;;;15.96;75.93;98533.30;127785;1093;102702;-68
2021/07/03 21:50:27;;;;;;;9.87;4.50;;;;;;;15.97;76.03;98523.41;125867;1092;103003;-69
2021/07/03 21:52:57;;;;;;;7.43;4.20;;;;;;;15.95;75.98;98528.08;125551;1093;102937;-68
2021/07/03 21:55:27;;;;;;;9.20;4.60;;;;;;;15.92;76.06;98515.84;125600;1094;102966;-68
2021/07/03 21:57:57;;;;;;;10.47;4.67;;;;;;;15.89;75.84;98533.11;125673;1093;102945;-68
2021/07/03 22:00:35;;;;;;;8.27;4.50;;;;;;;15.87;75.96;98524.38;125608;1092;103169;-68
2021/07/03 22:03:07;;;;;;;10.17;5.10;;;;;;;15.86;76.07;98516.45;125575;1094;103025;-69
2021/07/03 22:05:41;;;;;;;10.53;5.08;;;;;;;15.82;76.08;98520.45;125656;1096;102713;-69
2021/07/03 22:08:14;;;;;;;10.40;4.57;;;;;;;15.80;76.17;98519.77;125611;1093;102938;-68
2021/07/03 22:10:46;;;;;;;8.00;4.15;;;;;;;15.82;76.04;98517.77;125701;1093;102977;-68
2021/07/03 22:13:18;;;;;;;10.33;4.57;;;;;;;15.80;76.07;98519.77;125735;1096;103057;-68
2021/07/03 22:15:55;;;;;;;18.37;6.53;;;;;;;15.82;76.16;98526.66;125645;1095;103012;-68
2021/07/03 22:18:30;;;;;;;12.03;5.10;;;;;;;15.83;76.19;98514.08;125622;1093;102949;-68
2021/07/03 22:21:07;;;;;;;9.47;5.20;;;;;;;15.85;76.12;98517.45;125676;1095;102952;-68
2021/07/03 22:23:38;;;;;;;11.70;5.43;;;;;;;15.84;76.17;98516.63;125626;1095;103068;-68
2021/07/03 22:26:09;;;;;;;13.13;5.60;;;;;;;15.86;76.20;98513.77;125656;1094;103041;-69
2021/07/03 22:28:39;;;;;;;13.33;5.50;;;;;;;15.87;76.36;98519.02;125664;1095;102978;-68
2021/07/03 22:31:09;;;;;;;13.93;5.90;;;;;;;15.90;76.24;98520.53;125598;1094;103068;-68
2021/07/03 22:33:37;;;;;;;15.03;6.27;;;;;;;15.92;76.25;98516.67;125656;1096;102919;-66
2021/07/03 22:36:07;;;;;;;17.10;7.50;;;;;;;15.95;76.29;98512.84;125611;1096;103084;-68
2021/07/03 22:38:36;;;;;;;16.65;7.45;;;;;;;15.98;76.32;98511.67;126867;1096;102995;-69
2021/07/03 22:41:04;;;;;;;16.53;7.30;;;;;;;15.99;76.46;98498.13;125648;1093;103194;-68
2021/07/03 22:43:36;;;;;;;25.27;9.00;;;;;;;16.02;76.19;98503.16;125950;1095;102929;-69
2021/07/03 22:46:04;;;;;;;22.03;8.87;;;;;;;16.05;76.32;98499.31;125714;1093;103035;-68
2021/07/03 22:48:36;;;;;;;21.03;9.80;;;;;;;16.09;76.53;98505.21;125668;1093;102937;-67
2021/07/03 22:51:04;;;;;;;20.30;9.97;;;;;;;16.14;76.55;98509.08;125615;1095;102930;-69
2021/07/03 22:53:34;;;;;;;19.30;9.20;;;;;;;16.18;76.61;98505.08;125632;1094;102786;-67
2021/07/03 22:56:02;;;;;;;19.70;9.43;;;;;;;16.23;76.39;98496.53;125655;1096;103220;-68
2021/07/03 22:58:31;;;;;;;23.30;10.70;;;;;;;16.26;76.65;98493.52;125591;1094;103011;-68
2021/07/03 23:00:59;;;;;;;21.00;10.57;;;;;;;16.30;76.83;98480.64;125658;1096;103094;-67
2021/07/03 23:03:29;;;;;;;22.10;11.23;;;;;;;16.34;76.47;98487.33;125642;1093;103508;-69
2021/07/03 23:05:57;;;;;;;22.27;11.90;;;;;;;16.37;76.60;98482.50;125621;1094;103091;-67
2021/07/03 23:08:26;;;;;;;25.77;12.60;;;;;;;16.40;76.45;98480.48;125688;1093;102938;-68
2021/07/03 23:10:55;;;;;;;20.13;11.37;;;;;;;16.44;76.56;98476.48;125680;1093;103013;-68
2021/07/03 23:13:26;;;;;;;28.73;12.03;;;;;;;16.46;76.59;98477.98;125674;1094;103050;-68
2021/07/03 23:15:57;;;;;;;24.03;12.25;;;;;;;16.48;76.56;98481.34;125650;1093;102920;-67
2021/07/03 23:18:27;;;;;;;23.00;12.37;;;;;;;16.52;76.89;98481.84;125613;1092;102915;-69
2021/07/03 23:20:57;;;;;;;29.87;13.20;;;;;;;16.54;76.59;98479.83;125654;1093;102998;-68
2021/07/03 23:23:27;;;;;;;23.40;12.07;;;;;;;16.56;76.53;98469.77;125674;1093;102916;-68
2021/07/03 23:25:56;;;;;;;26.70;12.53;;;;;;;16.58;76.74;98470.45;125668;1093;103012;-68
2021/07/03 23:28:26;;;;;;;23.30;11.57;;;;;;;16.59;76.50;98474.81;125702;1093;103012;-68
2021/07/03 23:30:56;;;;;;;23.30;11.73;;;;;;;16.58;76.59;98473.13;125652;1093;104110;-69
2021/07/03 23:33:24;;;;;;;25.67;12.33;;;;;;;16.60;76.58;98473.81;125738;1092;102908;-69
2021/07/03 23:35:52;;;;;;;25.23;12.13;;;;;;;16.60;76.57;98479.18;125696;1093;102991;-68
2021/07/03 23:38:25;;;;;;;20.40;10.83;;;;;;;16.61;76.56;98474.66;125695;1093;103031;-67
2021/07/03 23:40:55;;;;;;;23.63;12.27;;;;;;;16.62;76.84;98476.34;125644;1095;103060;-69
2021/07/03 23:43:24;;;;;;;22.47;11.57;;;;;;;16.63;76.85;98475.34;125633;1094;102913;-68
2021/07/03 23:45:54;;;;;;;22.30;11.70;;;;;;;16.63;76.63;98473.48;125623;1095;103033;-68
2021/07/03 23:48:24;;;;;;;23.03;11.60;;;;;;;16.66;76.77;98483.07;125658;1095;103018;-69
2021/07/03 23:50:53;;;;;;;24.37;12.23;;;;;;;16.65;76.85;98479.53;125675;1096;102914;-69
2021/07/03 23:53:24;;;;;;;21.60;11.50;;;;;;;16.64;76.91;98480.53;125652;1096;104503;-69
2021/07/03 23:55:52;;;;;;;23.77;12.03;;;;;;;16.65;76.56;98474.16;125603;1095;103000;-69
2021/07/03 23:58:22;;;;;;;22.53;11.33;;;;;;;16.66;76.71;98472.33;125661;1096;102929;-69
